Alexandru Mihaila

Olheiro-Chefe - Viitorul
20 Jan 2028
Quinta-feira
Processo

Personalidade

Adaptabilidade (5) Ambição (14) Controvérsia (10) Lealdade (2) Pressão (2) Profissionalismo (13) Espírito Esportivo (12) Temperamento (1)

Perfil

Estilo de Treinamento Democrático
Licença Continental B
Determinação 5
Gestão de Pessoas 8
Motivação 11
Disciplina 10
Satisfação no Trabalho
100%
Fadiga
0%
Função Olheiro-Chefe
Salário 55.7K p/s
Contrato 14.03.2029

Desempenho

Comportamento Bom
Eficácia do Treinamento
33%
Desenvolvimento do Jogador
25%
Prevenção de Lesões
40%
Implementação Tática
35%

Eventos Recentes

Participando de desenvolvimento profissional agora
Participou de uma reunião de recrutamento agora
Participou de uma reunião de recrutamento agora
Participou de uma reunião de recrutamento agora
Participou de uma reunião de recrutamento 7d atrás
Participou de uma reunião de recrutamento 7d atrás
Participando de desenvolvimento profissional 7d atrás
Participando de desenvolvimento profissional 7d atrás

Monitorando agora

82
Jogador Clube Status Habilidade Confiança Observado Última observação Último voto
Alexandru Creţu Universitatea Craiova Perdido 104 / 110 55% 1 10.01.2028 -
Sam Nombe Milton Keynes Dons Ativo 108 / 104 40% 4 22.07.2027 -
Giacomo Zecca Torres Ativo 106 / 101 40% 1 22.07.2027 -
Simone Mazzocchi Cosenza Ativo 116 / 106 40% 2 28.06.2027 -
Moussa Dembélé CR Belouizdad Ativo 136 / 144 40% 4 14.06.2027 -
Ronan Hale Gillingham Ativo 107 / 117 40% 3 14.06.2027 -
Bura Petrolul Ativo 113 / 92 55% 1 01.06.2027 -
Lorenzo Di Stefano Torres Ativo 118 / 108 40% 2 30.05.2027 -
Lewis Morgan SuperSport United Ativo 129 / 129 40% 6 25.05.2027 -
Lewis McCann Fleetwood Town Ativo 91 / 100 40% 2 25.05.2027 -
Kelly Saravanan Salford City Ativo 111 / 119 40% 3 24.05.2027 -
Kyle Wootton Stockport County Ativo 119 / 124 40% 2 24.05.2027 -
Iwan Morgan Grimsby Town Ativo 110 / 119 40% 5 21.05.2027 -
Marcus Browne AFC Wimbledon Ativo 101 / 111 40% 1 21.05.2027 -
Bojan Radulović Huddersfield Town Ativo 106 / 107 40% 3 20.05.2027 -
Christian Saydee Wigan Athletic Ativo 117 / 105 40% 4 19.05.2027 -
Josh Koroma Leyton Orient Ativo 102 / 102 40% 2 19.05.2027 -
Mattia Bortolussi Padova Ativo 117 / 127 40% 1 16.05.2027 -
Kwame Opoku Asante Kotoko Ativo 101 / 109 40% 3 12.05.2027 -
Martin Sekulić Ural Ativo 111 / 111 40% 1 12.05.2027 -
Themba Ngcobo SuperSport United Ativo 112 / 104 40% 5 11.05.2027 -
Malik Mothersille Stockport County Ativo 110 / 119 40% 2 09.05.2027 -
Lorent Tolaj Plymouth Argyle Ativo 129 / 123 40% 3 08.05.2027 -
Alassana Jatta Notts County Ativo 110 / 105 40% 1 08.05.2027 -
Camillo Tavernelli Arezzo Ativo 116 / 110 40% 1 06.05.2027 -
Aaron Collins Milton Keynes Dons Ativo 121 / 123 40% 2 04.05.2027 -
Lee Bonis Chesterfield Ativo 101 / 97 40% 2 03.05.2027 -
Shayne Lavery Cambridge United Ativo 111 / 112 40% 3 02.05.2027 -
Stephen Humphrys Bradford City Ativo 108 / 100 40% 2 30.04.2027 -
Jonathan Gyan Liberty Professionals Ativo 94 / 86 40% 3 28.04.2027 -
Abu Kamara Portsmouth Ativo 110 / 120 40% 1 26.04.2027 -
Lamine Guèye Barrow AFC Ativo 109 / 110 40% 1 23.04.2027 -
Francesco Petito Dolomiti Bellunesi Ativo 103 / 96 40% 1 23.04.2027 -
Robert Mizo Ashanti Gold Ativo 112 / 103 40% 1 18.04.2027 -
Mandla Mahlangu Ajax Cape Town Ativo 119 / 87 40% 2 11.04.2027 -
Victor Adeboyejo Ismaily Ativo 116 / 93 40% 3 09.04.2027 -
Mostafa Marwan Masr El Makasa Ativo 104 / 102 40% 1 04.04.2027 -
John Okoye Ebuka Ittihad Ativo 104 / 108 40% 3 03.04.2027 -
Tyreece Campbell Charlton Athletic Ativo 110 / 117 40% 1 01.04.2027 -
Jayden Wareham Barnet Ativo 101 / 102 40% 1 30.03.2027 -
Davis Keillor-Dunn Wrexham Ativo 109 / 111 40% 1 28.03.2027 -
Aaron Drinan Swindon Town Ativo 99 / 112 40% 1 27.03.2027 -
Rui Costa Port Vale Ativo 106 / 117 40% 1 26.03.2027 -
Danyil Alefirenko Chornomorets Ativo 115 / 115 40% 1 25.03.2027 -
Samuel Tetteh Ashanti Gold Ativo 96 / 103 40% 1 24.03.2027 -
Mees Rijks Bristol Rovers Ativo 114 / 107 40% 3 23.03.2027 -
Brayan León Mamelodi Sundowns Ativo 135 / 129 40% 1 21.03.2027 -
Bernat Guiu Virtus Entella Ativo 126 / 110 40% 1 20.03.2027 -
Dom Ballard Leyton Orient Ativo 125 / 118 40% 2 18.03.2027 -
Edarlyn Reyes Arsenal Tula Ativo 109 / 108 40% 3 16.03.2027 -
Elijah Adebayo Luton Town Ativo 116 / 125 40% 2 14.03.2027 -
Dany Mota Monza Ativo 132 / 124 40% 1 13.03.2027 -
Sam Bell Bristol City Ativo 115 / 129 40% 1 13.03.2027 -
Everton Bala Levski Ativo 124 / 133 40% 1 11.03.2027 -
Carlton Morris Derby County Ativo 116 / 121 40% 1 09.03.2027 -
Harry Cornick AFC Wimbledon Ativo 101 / 96 40% 2 05.03.2027 -
Niall Ennis Blackpool Ativo 113 / 111 40% 1 02.03.2027 -
Friday Ubong Ashanti Gold Ativo 92 / 97 40% 1 01.03.2027 -
James Morris Leyton Orient Ativo 115 / 119 40% 1 07.02.2027 -
Jay Matete Milton Keynes Dons Ativo 112 / 110 40% 1 07.02.2027 -
Erick Jali Black Aces Ativo 109 / 119 40% 2 04.02.2027 -
Nathan Moriah-Welsh Mansfield Town Ativo 104 / 113 40% 1 04.02.2027 -
Carlos Mora Universitatea Craiova Ativo 115 / 132 40% 1 03.02.2027 -
Dennis Cirkin Queens Park Rangers Ativo 120 / 126 40% 1 03.02.2027 -
Álex Centelles Levski Ativo 124 / 115 40% 1 03.02.2027 -
Nikita Kakkoev Nizhniy Novgorod Ativo 115 / 115 40% 1 01.02.2027 -
Josh Tymon Swansea City Ativo 132 / 132 40% 1 01.02.2027 -
Nicusor Tanase Pandurii Ativo 106 / 113 51% 1 25.01.2027 -
Oleksii Hutsuliak Polissia Ativo 128 / 119 40% 1 03.01.2027 -
Anderson Arroyo Rubin Ativo 108 / 123 40% 2 07.12.2026 Mais informações
Malebogo Modise Polokwane City Ativo 119 / 102 40% 1 07.12.2026 Mais informações
Luca Connell Barnsley Ativo 119 / 110 40% 1 20.11.2026 -
Ryan Porteous Los Angeles Football Club Ativo 95 / 130 40% 1 05.11.2026 -
António Eirô Lokomotiv Sofia Ativo 107 / 121 40% 1 03.11.2026 -
Williams Manyama SuperSport United Ativo 115 / 109 40% 1 03.11.2026 -
Mihály Kata MTK Budapest Ativo 109 / 114 40% 1 02.11.2026 -
Francisco Barrios CFR Cluj Ativo 98 / 99 40% 1 02.11.2026 -
Alexandru Cicaldau Pandurii Ativo 126 / 107 51% 1 24.08.2026 -
Macaulay Langstaff Millwall Ativo 104 / 106 40% 1 11.08.2026 -
Juan Manuel Requena Universitario Ativo 118 / 110 40% 1 03.08.2026 -
Mauricio Márquez Caracas Ativo 93 / 101 40% 1 02.08.2026 -
Yuki Ohashi Blackburn Rovers Ativo 119 / 115 40% 1 02.08.2026 -